America — WDE6076 — position and weather

sailwx.info

Track history (hours):
 
Tides and Currents Weather Stations Pressure Air Temp Water Temp Dewpoint Dewpoint Depression Visibility Wind Speed Wind Dir Waves Ship Positions

America

Owner: ET Yacht, LLC, San Diego, CA. More information available from US FCC via Universal Licensing System and Coast Guard Vessel Documentation Center.

Last reported at 2018-Jun-15 10:41 UTC. Time now 2018-Jun-20 11:21 UTC.
Position N 32°43' W 117°10'.

Length 42 m; draft 3.5 m.

Type: Sailing vessel. MMSI: 367375550.

Date/timePositionNaut miles runAvg speedWind from/ knotsBaromVisibWave heightAir tempDewpointWater temp
2018-Jun-15 10:41N 32°43' W 117°10'0 0.0
2018-Jun-15 10:26N 32°43' W 117°10'0 0.0
2018-Jun-15 02:57N 32°43' W 117°10'0 0.0
2018-Jun-15 02:20N 32°43' W 117°10'0 0.0
2018-Jun-15 01:58N 32°43' W 117°10'1 0.5
2018-Jun-14 23:18N 32°43' W 117°12'1 3.1
2018-Jun-14 23:00N 32°43' W 117°11'0 0.7
2018-Jun-14 22:27N 32°43' W 117°10'0 0.3
2018-Jun-14 21:57N 32°43' W 117°11'11 6.2
2018-Jun-14 20:06N 32°34' W 117°19'1 4.3
2018-Jun-14 19:51N 32°35' W 117°20'2 4.8
2018-Jun-14 19:30N 32°33' W 117°18'6 8.7
2018-Jun-14 18:46N 32°39' W 117°14'4 8.2
2018-Jun-14 18:15N 32°43' W 117°12'2 0.9
2018-Jun-14 16:21N 32°43' W 117°10'0 0.0
2018-Jun-13 23:34N 32°43' W 117°10'0 0.0
2018-Jun-13 23:24N 32°43' W 117°10'0 0.0
2018-Jun-13 22:59N 32°43' W 117°10'0 0.0
2018-Jun-13 22:24N 32°43' W 117°10'0 0.2
2018-Jun-13 22:00N 32°43' W 117°10'2 1.8
2018-Jun-13 20:44N 32°41' W 117°09'1 1.8
2018-Jun-13 20:22N 32°42' W 117°10'2 5.2
2018-Jun-13 19:59N 32°43' W 117°11'1 0.3
2018-Jun-13 18:14N 32°43' W 117°11'0 1.0
2018-Jun-13 17:50N 32°43' W 117°10'0 0.0
2018-Jun-13 17:29N 32°43' W 117°10'0 0.0
2018-Jun-13 17:00N 32°43' W 117°10'0 0.0
2018-Jun-13 15:45N 32°43' W 117°10'0 0.0
2018-Jun-13 15:09N 32°43' W 117°10'0 0.0
2018-Jun-13 08:18N 32°43' W 117°10'0 0.0
2018-Jun-13 05:34N 32°43' W 117°10'0 0.0
2018-Jun-13 05:25N 32°43' W 117°10'0 0.0
2018-Jun-12 23:06N 32°43' W 117°10'0 0.0
2018-Jun-12 22:54N 32°43' W 117°10'0 0.0
2018-Jun-12 22:30N 32°43' W 117°10'0 0.0
2018-Jun-12 08:28N 32°43' W 117°10'0 0.0
2018-Jun-12 06:37N 32°43' W 117°10'0 0.0
2018-Jun-12 06:19N 32°43' W 117°10'0 0.0
2018-Jun-12 05:57N 32°43' W 117°10'0 0.0
2018-Jun-12 00:47N 32°43' W 117°10'0 0.0
2018-Jun-11 05:59N 32°43' W 117°10'0 0.0
2018-Jun-11 05:14N 32°43' W 117°10'0 0.0
2018-Jun-11 04:59N 32°43' W 117°10'8 0.2
2018-Jun-09 19:11N 32°36' W 117°16'3 8.2
2018-Jun-09 18:50N 32°39' W 117°14'4 7.8
2018-Jun-09 18:15N 32°43' W 117°12'1 3.2
2018-Jun-09 17:49N 32°43' W 117°10'0 0.0
2018-Jun-09 17:28N 32°43' W 117°10'0 0.0
2018-Jun-09 16:58N 32°43' W 117°10'0 0.0
2018-Jun-09 11:30N 32°43' W 117°10'0 0.0
2018-Jun-09 06:13N 32°43' W 117°10'0 0.0
2018-Jun-09 05:53N 32°43' W 117°10'0 0.0
2018-Jun-09 05:30N 32°43' W 117°10'0 0.0
2018-Jun-08 17:09N 32°43' W 117°10'0 0.0
2018-Jun-08 16:57N 32°43' W 117°10'0 0.0
2018-Jun-08 16:25N 32°43' W 117°10'0 0.0
2018-Jun-08 07:51N 32°43' W 117°10'0 0.0
2018-Jun-08 04:32N 32°43' W 117°10'0 0.0
2018-Jun-08 04:08N 32°43' W 117°10'0 0.0
2018-Jun-08 03:51N 32°43' W 117°10'0 0.0
2018-Jun-08 03:13N 32°43' W 117°10'0 0.0
2018-Jun-08 02:55N 32°43' W 117°10'0 0.0
2018-Jun-08 00:03N 32°43' W 117°10'0 0.0
2018-Jun-07 23:54N 32°43' W 117°10'0 0.0
2018-Jun-07 23:24N 32°43' W 117°10'0 0.0
2018-Jun-07 22:57N 32°43' W 117°10'1 2.9
2018-Jun-07 22:30N 32°43' W 117°12'4 6.9
2018-Jun-07 21:56N 32°39' W 117°14'3 7.0
2018-Jun-07 21:30N 32°40' W 117°17'4 8.4
2018-Jun-07 20:59N 32°41' W 117°22'4 8.1
2018-Jun-07 20:30N 32°42' W 117°27'3 5.0
2018-Jun-07 20:00N 32°41' W 117°24'8 7.8
2018-Jun-07 18:57N 32°39' W 117°14'4 8.4
2018-Jun-07 18:28N 32°43' W 117°13'2 2.8
2018-Jun-07 17:46N 32°43' W 117°10'0 0.0
2018-Jun-07 17:28N 32°43' W 117°10'  
Track history (hours):
 
Tides and Currents Weather Stations Pressure Air Temp Water Temp Dewpoint Dewpoint Depression Visibility Wind Speed Wind Dir Waves Ship Positions

America

Owner: ET Yacht, LLC, San Diego, CA. More information available from US FCC via Universal Licensing System and Coast Guard Vessel Documentation Center.

Last reported at 2018-Jun-15 10:41 UTC. Time now 2018-Jun-20 11:21 UTC.
Position N 32°43' W 117°10'.

Length 42 m; draft 3.5 m.

Type: Sailing vessel. MMSI: 367375550.

Date/timePositionNaut miles runAvg speedWind from/ knotsBaromVisibWave heightAir tempDewpointWater temp
2018-Jun-15 10:41N 32°43' W 117°10'0 0.0
2018-Jun-15 10:26N 32°43' W 117°10'0 0.0
2018-Jun-15 02:57N 32°43' W 117°10'0 0.0
2018-Jun-15 02:20N 32°43' W 117°10'0 0.0
2018-Jun-15 01:58N 32°43' W 117°10'1 0.5
2018-Jun-14 23:18N 32°43' W 117°12'1 3.1
2018-Jun-14 23:00N 32°43' W 117°11'0 0.7
2018-Jun-14 22:27N 32°43' W 117°10'0 0.3
2018-Jun-14 21:57N 32°43' W 117°11'11 6.2
2018-Jun-14 20:06N 32°34' W 117°19'1 4.3
2018-Jun-14 19:51N 32°35' W 117°20'2 4.8
2018-Jun-14 19:30N 32°33' W 117°18'6 8.7
2018-Jun-14 18:46N 32°39' W 117°14'4 8.2
2018-Jun-14 18:15N 32°43' W 117°12'2 0.9
2018-Jun-14 16:21N 32°43' W 117°10'0 0.0
2018-Jun-13 23:34N 32°43' W 117°10'0 0.0
2018-Jun-13 23:24N 32°43' W 117°10'0 0.0
2018-Jun-13 22:59N 32°43' W 117°10'0 0.0
2018-Jun-13 22:24N 32°43' W 117°10'0 0.2
2018-Jun-13 22:00N 32°43' W 117°10'2 1.8
2018-Jun-13 20:44N 32°41' W 117°09'1 1.8
2018-Jun-13 20:22N 32°42' W 117°10'2 5.2
2018-Jun-13 19:59N 32°43' W 117°11'1 0.3
2018-Jun-13 18:14N 32°43' W 117°11'0 1.0
2018-Jun-13 17:50N 32°43' W 117°10'0 0.0
2018-Jun-13 17:29N 32°43' W 117°10'0 0.0
2018-Jun-13 17:00N 32°43' W 117°10'0 0.0
2018-Jun-13 15:45N 32°43' W 117°10'0 0.0
2018-Jun-13 15:09N 32°43' W 117°10'0 0.0
2018-Jun-13 08:18N 32°43' W 117°10'0 0.0
2018-Jun-13 05:34N 32°43' W 117°10'0 0.0
2018-Jun-13 05:25N 32°43' W 117°10'0 0.0
2018-Jun-12 23:06N 32°43' W 117°10'0 0.0
2018-Jun-12 22:54N 32°43' W 117°10'0 0.0
2018-Jun-12 22:30N 32°43' W 117°10'0 0.0
2018-Jun-12 08:28N 32°43' W 117°10'0 0.0
2018-Jun-12 06:37N 32°43' W 117°10'0 0.0
2018-Jun-12 06:19N 32°43' W 117°10'0 0.0
2018-Jun-12 05:57N 32°43' W 117°10'0 0.0
2018-Jun-12 00:47N 32°43' W 117°10'0 0.0
2018-Jun-11 05:59N 32°43' W 117°10'0 0.0
2018-Jun-11 05:14N 32°43' W 117°10'0 0.0
2018-Jun-11 04:59N 32°43' W 117°10'8 0.2
2018-Jun-09 19:11N 32°36' W 117°16'3 8.2
2018-Jun-09 18:50N 32°39' W 117°14'4 7.8
2018-Jun-09 18:15N 32°43' W 117°12'1 3.2
2018-Jun-09 17:49N 32°43' W 117°10'0 0.0
2018-Jun-09 17:28N 32°43' W 117°10'0 0.0
2018-Jun-09 16:58N 32°43' W 117°10'0 0.0
2018-Jun-09 11:30N 32°43' W 117°10'0 0.0
2018-Jun-09 06:13N 32°43' W 117°10'0 0.0
2018-Jun-09 05:53N 32°43' W 117°10'0 0.0
2018-Jun-09 05:30N 32°43' W 117°10'0 0.0
2018-Jun-08 17:09N 32°43' W 117°10'0 0.0
2018-Jun-08 16:57N 32°43' W 117°10'0 0.0
2018-Jun-08 16:25N 32°43' W 117°10'0 0.0
2018-Jun-08 07:51N 32°43' W 117°10'0 0.0
2018-Jun-08 04:32N 32°43' W 117°10'0 0.0
2018-Jun-08 04:08N 32°43' W 117°10'0 0.0
2018-Jun-08 03:51N 32°43' W 117°10'0 0.0
2018-Jun-08 03:13N 32°43' W 117°10'0 0.0
2018-Jun-08 02:55N 32°43' W 117°10'0 0.0
2018-Jun-08 00:03N 32°43' W 117°10'0 0.0
2018-Jun-07 23:54N 32°43' W 117°10'0 0.0
2018-Jun-07 23:24N 32°43' W 117°10'0 0.0
2018-Jun-07 22:57N 32°43' W 117°10'1 2.9
2018-Jun-07 22:30N 32°43' W 117°12'4 6.9
2018-Jun-07 21:56N 32°39' W 117°14'3 7.0
2018-Jun-07 21:30N 32°40' W 117°17'4 8.4
2018-Jun-07 20:59N 32°41' W 117°22'4 8.1
2018-Jun-07 20:30N 32°42' W 117°27'3 5.0
2018-Jun-07 20:00N 32°41' W 117°24'8 7.8
2018-Jun-07 18:57N 32°39' W 117°14'4 8.4
2018-Jun-07 18:28N 32°43' W 117°13'2 2.8
2018-Jun-07 17:46N 32°43' W 117°10'0 0.0
2018-Jun-07 17:28N 32°43' W 117°10'  

Dump ship's entire track history